Time;durP1;ratioP1;P1;durP2;ratioP2;P2;SDS_P1;SDS_P2;PMS_P1;PMS_P2;Temp;Humidity;BMP_temperature;BMP_pressure;BME280_temperature;BME280_humidity;BME280_pressure;Samples;Min_cycle;Max_cycle;Signal;HPM_P1;HPM_P2
2022/11/30 00:00:58;;;;;;;34.80;4.15;;;21.00;45.40;;;;;;5027569;28;20524;-68
2022/11/30 00:03:25;;;;;;;26.35;3.47;;;21.00;45.50;;;;;;5024909;28;20085;-67
2022/11/30 00:05:52;;;;;;;23.30;3.55;;;21.00;47.00;;;;;;5023314;28;20488;-67
2022/11/30 00:08:18;;;;;;;18.70;3.05;;;20.90;46.20;;;;;;5025380;28;20106;-68
2022/11/30 00:10:45;;;;;;;17.50;3.67;;;20.80;46.20;;;;;;5028679;28;20212;-67
2022/11/30 00:13:11;;;;;;;14.05;2.95;;;20.60;46.30;;;;;;5025145;28;20112;-68
2022/11/30 00:15:38;;;;;;;24.00;3.65;;;20.50;45.80;;;;;;5026225;28;20073;-69
2022/11/30 00:18:04;;;;;;;14.23;3.13;;;20.40;46.20;;;;;;5028271;28;20078;-67
2022/11/30 00:20:31;;;;;;;24.08;3.47;;;20.30;45.90;;;;;;5024978;28;20094;-68
2022/11/30 00:22:57;;;;;;;25.58;3.65;;;20.20;46.70;;;;;;5026028;28;20137;-68
2022/11/30 00:25:25;;;;;;;21.88;3.45;;;20.10;47.70;;;;;;5026836;28;20078;-66
2022/11/30 00:27:51;;;;;;;17.73;3.88;;;20.00;47.60;;;;;;5022736;28;20118;-68
2022/11/30 00:30:18;;;;;;;20.85;3.67;;;19.90;47.40;;;;;;5020676;28;20160;-67
2022/11/30 00:32:44;;;;;;;21.23;3.45;;;19.80;47.60;;;;;;5024149;28;20097;-66
2022/11/30 00:35:11;;;;;;;31.35;3.97;;;19.80;48.70;;;;;;5028911;28;20069;-68
2022/11/30 00:37:37;;;;;;;25.98;4.32;;;19.50;48.90;;;;;;5027051;28;20072;-68
2022/11/30 00:40:05;;;;;;;25.27;4.88;;;19.40;49.30;;;;;;5030454;28;20492;-67
2022/11/30 00:42:31;;;;;;;34.60;4.60;;;19.30;49.50;;;;;;5030278;28;20078;-68
2022/11/30 00:44:57;;;;;;;30.50;4.85;;;19.30;49.60;;;;;;5031773;28;20066;-67
2022/11/30 00:47:24;;;;;;;26.90;5.15;;;19.10;49.90;;;;;;5049726;28;20088;-68
2022/11/30 00:49:50;;;;;;;21.23;4.95;;;19.10;49.70;;;;;;5012513;28;20077;-69
2022/11/30 00:52:16;;;;;;;28.60;6.78;;;19.00;50.00;;;;;;5032967;28;20129;-65
2022/11/30 00:54:43;;;;;;;34.15;5.53;;;18.80;50.00;;;;;;5037645;28;20526;-68
2022/11/30 00:57:10;;;;;;;40.30;5.07;;;18.70;50.40;;;;;;5032377;28;20228;-67
2022/11/30 00:59:36;;;;;;;29.65;4.40;;;18.70;50.70;;;;;;5027813;28;20066;-68
2022/11/30 01:02:03;;;;;;;29.98;4.82;;;18.70;51.90;;;;;;5035046;28;20128;-66
2022/11/30 01:04:29;;;;;;;34.70;6.22;;;18.60;51.70;;;;;;5018482;28;20081;-68
2022/11/30 01:06:55;;;;;;;36.10;8.88;;;18.50;52.10;;;;;;5037957;28;20086;-66
2022/11/30 01:09:22;;;;;;;27.67;4.53;;;18.40;52.50;;;;;;5028416;28;20343;-68
2022/11/30 01:11:48;;;;;;;32.40;5.07;;;18.30;53.10;;;;;;5030200;28;20081;-66
2022/11/30 01:14:15;;;;;;;44.75;6.68;;;18.20;53.20;;;;;;5033645;28;20070;-66
2022/11/30 01:16:44;;;;;;;36.58;5.70;;;18.20;53.40;;;;;;5029229;28;21852;-65
2022/11/30 01:19:10;;;;;;;37.10;5.60;;;18.10;53.40;;;;;;5023639;28;20096;-66
2022/11/30 01:21:37;;;;;;;37.33;6.43;;;18.10;53.20;;;;;;5028652;28;20086;-67
2022/11/30 01:24:04;;;;;;;44.83;6.10;;;17.90;53.60;;;;;;5034590;28;20147;-67
2022/11/30 01:26:30;;;;;;;38.67;6.00;;;17.90;53.90;;;;;;5027639;28;20124;-68
2022/11/30 01:28:56;;;;;;;35.25;6.22;;;17.80;54.60;;;;;;5033634;28;20074;-72
2022/11/30 01:31:23;;;;;;;44.75;7.43;;;17.80;54.80;;;;;;5034804;28;20070;-69
2022/11/30 01:33:54;;;;;;;46.55;7.55;;;17.70;55.00;;;;;;5033606;28;20140;-67
2022/11/30 01:36:26;;;;;;;53.28;7.57;;;17.70;55.00;;;;;;5037924;28;20080;-64
2022/11/30 01:38:55;;;;;;;49.28;7.63;;;17.60;55.20;;;;;;5038062;28;20069;-66
2022/11/30 01:41:30;;;;;;;55.85;8.32;;;17.50;55.60;;;;;;5033352;28;20074;-67
2022/11/30 01:44:17;;;;;;;57.55;9.05;;;17.50;55.60;;;;;;5034716;28;20074;-65
2022/11/30 01:47:04;;;;;;;62.20;8.45;;;17.50;55.90;;;;;;5037794;28;20078;-65
2022/11/30 01:49:32;;;;;;;66.68;9.15;;;17.40;56.40;;;;;;5042271;28;20698;-67
2022/11/30 01:52:14;;;;;;;53.30;14.02;;;17.30;56.40;;;;;;5041688;28;20454;-67
2022/11/30 01:54:46;;;;;;;65.40;12.63;;;17.30;57.00;;;;;;5037581;28;20077;-68
2022/11/30 01:57:29;;;;;;;54.85;12.00;;;17.30;57.50;;;;;;5036818;28;20080;-68
2022/11/30 01:59:58;;;;;;;76.22;35.05;;;17.20;57.80;;;;;;5045867;28;20069;-66
2022/11/30 02:02:37;;;;;;;83.07;25.83;;;17.20;58.00;;;;;;5042504;28;20684;-67
2022/11/30 02:05:03;;;;;;;132.13;80.72;;;17.10;57.80;;;;;;5039139;28;20089;-68
2022/11/30 02:07:30;;;;;;;87.53;28.50;;;17.10;57.90;;;;;;5041399;28;20081;-65
2022/11/30 02:09:56;;;;;;;75.07;18.00;;;17.00;58.00;;;;;;5040002;28;20112;-68
2022/11/30 02:12:38;;;;;;;73.32;15.75;;;17.00;58.10;;;;;;5043312;28;21746;-68
2022/11/30 02:15:13;;;;;;;56.13;11.20;;;16.90;58.30;;;;;;5041229;28;20078;-68
2022/11/30 02:18:00;;;;;;;66.85;10.73;;;16.80;58.40;;;;;;5042973;28;20069;-68
2022/11/30 02:20:40;;;;;;;62.05;10.50;;;16.80;58.50;;;;;;5034595;28;20549;-66
2022/11/30 02:23:42;;;;;;;57.50;10.25;;;16.70;58.80;;;;;;5037602;28;20082;-68
2022/11/30 02:26:20;;;;;;;57.50;10.45;;;16.70;59.00;;;;;;5044308;28;20074;-66
2022/11/30 02:29:03;;;;;;;60.78;11.05;;;16.60;59.20;;;;;;5033910;28;20165;-66
2022/11/30 02:31:41;;;;;;;70.20;11.40;;;16.60;59.50;;;;;;5033677;28;20117;-67
2022/11/30 02:34:10;;;;;;;61.28;11.52;;;16.50;59.70;;;;;;5015096;28;20487;-70
2022/11/30 02:36:37;;;;;;;69.88;12.15;;;16.50;59.90;;;;;;5036920;28;20090;-65
2022/11/30 02:39:04;;;;;;;75.03;11.88;;;16.50;60.30;;;;;;5035677;28;20070;-65
2022/11/30 02:41:39;;;;;;;80.65;13.23;;;16.40;60.30;;;;;;5036380;28;20472;-66
2022/11/30 02:44:09;;;;;;;54.95;10.52;;;16.40;60.60;;;;;;5035664;28;20157;-66
2022/11/30 02:46:57;;;;;;;47.10;11.02;;;16.30;61.20;;;;;;5037164;28;20124;-65
2022/11/30 02:49:33;;;;;;;67.47;11.15;;;16.30;61.20;;;;;;5040182;28;20143;-66
2022/11/30 02:52:01;;;;;;;81.33;11.67;;;16.20;61.20;;;;;;5040654;28;20073;-65
2022/11/30 02:54:28;;;;;;;65.70;11.65;;;16.20;61.30;;;;;;5034402;28;20324;-65
2022/11/30 02:56:54;;;;;;;72.00;11.38;;;16.20;61.50;;;;;;5040048;28;20074;-66
2022/11/30 02:59:21;;;;;;;52.10;11.40;;;16.20;61.80;;;;;;5034801;28;20081;-66
2022/11/30 03:01:48;;;;;;;76.38;13.05;;;16.10;62.10;;;;;;5034273;28;20157;-65
2022/11/30 03:04:14;;;;;;;76.20;12.40;;;16.00;62.40;;;;;;5037815;28;20160;-65
2022/11/30 03:06:40;;;;;;;;;;;16.00;62.60;;;;;;5034047;28;20074;-66
2022/11/30 03:09:07;;;;;;;82.32;13.45;;;16.00;62.60;;;;;;5036832;28;20000;-65
2022/11/30 03:11:33;;;;;;;68.47;12.85;;;15.80;63.10;;;;;;5034384;28;20511;-65
2022/11/30 03:14:00;;;;;;;55.72;12.43;;;15.80;63.00;;;;;;5032680;28;20089;-65
2022/11/30 03:16:26;;;;;;;62.75;13.43;;;15.90;63.20;;;;;;5038819;28;20180;-66
2022/11/30 03:18:52;;;;;;;67.15;12.05;;;15.90;63.40;;;;;;5026569;28;20540;-65
2022/11/30 03:21:19;;;;;;;;;;;15.80;63.60;;;;;;5038553;28;20136;-66
2022/11/30 03:23:45;;;;;;;62.55;10.98;;;15.80;63.70;;;;;;5031834;28;19972;-65
2022/11/30 03:26:11;;;;;;;;;;;15.80;63.60;;;;;;5030411;28;20632;-68
2022/11/30 03:28:37;;;;;;;56.75;12.18;;;15.70;63.40;;;;;;5039072;28;19958;-68
2022/11/30 03:31:04;;;;;;;51.83;11.93;;;15.70;63.50;;;;;;5032948;28;20097;-68
2022/11/30 03:33:30;;;;;;;77.15;12.18;;;15.70;63.80;;;;;;5042347;28;20089;-67
2022/11/30 03:36:00;;;;;;;;;;;15.70;64.70;;;;;;5042046;28;20157;-67
2022/11/30 03:38:26;;;;;;;61.58;12.65;;;15.70;64.30;;;;;;5036827;28;19976;-67
2022/11/30 03:40:59;;;;;;;;;;;15.70;63.90;;;;;;5043270;28;20065;-67
2022/11/30 03:43:25;;;;;;;64.43;15.63;;;15.60;63.70;;;;;;5040850;28;20008;-66
2022/11/30 03:45:51;;;;;;;;;;;15.60;64.10;;;;;;5045644;28;20074;-64
2022/11/30 03:48:18;;;;;;;101.53;30.42;;;15.60;63.70;;;;;;5041673;28;19981;-62
2022/11/30 03:50:49;;;;;;;98.88;27.85;;;15.50;63.30;;;;;;5040124;28;20074;-66
2022/11/30 03:53:20;;;;;;;93.60;23.52;;;15.60;63.40;;;;;;5035726;28;20585;-65
2022/11/30 03:55:50;;;;;;;80.70;20.05;;;15.60;63.10;;;;;;5039925;28;20070;-66
2022/11/30 03:58:17;;;;;;;84.18;20.50;;;15.60;63.00;;;;;;5038193;28;20072;-66
2022/11/30 04:00:43;;;;;;;;;;;15.60;62.90;;;;;;5036527;28;20078;-65
2022/11/30 04:03:09;;;;;;;78.70;14.38;;;15.60;63.30;;;;;;5041680;28;19995;-65
2022/11/30 04:05:35;;;;;;;;;;;15.60;63.30;;;;;;5043022;28;20097;-65
2022/11/30 04:08:01;;;;;;;57.38;11.50;;;15.60;63.50;;;;;;5035190;28;20517;-66
2022/11/30 04:10:28;;;;;;;58.65;14.00;;;15.50;63.70;;;;;;5029147;28;20085;-66
2022/11/30 04:12:54;;;;;;;;;;;15.50;63.50;;;;;;5032148;28;20128;-67
2022/11/30 04:15:20;;;;;;;65.80;13.23;;;15.50;64.60;;;;;;5033775;28;20009;-69
2022/11/30 04:17:46;;;;;;;72.57;15.43;;;15.50;64.60;;;;;;5041728;28;20077;-68
2022/11/30 04:20:13;;;;;;;;;;;15.40;65.30;;;;;;5035956;28;20587;-67
2022/11/30 04:22:39;;;;;;;86.57;15.45;;;15.30;65.60;;;;;;5033132;28;20019;-66
2022/11/30 04:25:05;;;;;;;;;;;15.20;66.40;;;;;;5043550;28;20069;-65
2022/11/30 04:27:32;;;;;;;80.25;16.92;;;15.20;65.90;;;;;;5039516;28;19965;-67
2022/11/30 04:29:58;;;;;;;;;;;15.10;66.10;;;;;;5038675;28;20161;-68
2022/11/30 04:32:24;;;;;;;77.88;17.58;;;15.10;66.20;;;;;;5039841;28;20072;-67
2022/11/30 04:34:50;;;;;;;;;;;15.10;67.30;;;;;;5042121;28;20069;-66
2022/11/30 04:37:16;;;;;;;75.65;16.13;;;15.10;67.30;;;;;;5037082;28;20339;-65
2022/11/30 04:39:43;;;;;;;75.38;16.55;;;15.10;67.50;;;;;;5034751;28;20074;-66
2022/11/30 04:42:09;;;;;;;91.03;20.30;;;15.00;66.90;;;;;;5043498;28;20078;-67
2022/11/30 04:44:35;;;;;;;;;;;14.90;67.30;;;;;;5039261;28;20066;-66
2022/11/30 04:47:02;;;;;;;84.40;18.75;;;14.90;67.50;;;;;;5036134;28;19973;-68
2022/11/30 04:49:28;;;;;;;;;;;14.90;67.80;;;;;;5036341;28;20070;-67
2022/11/30 04:51:54;;;;;;;90.95;17.33;;;14.80;67.90;;;;;;5036503;28;20011;-66
2022/11/30 04:54:20;;;;;;;;;;;14.80;68.90;;;;;;5041375;28;20078;-67
2022/11/30 04:56:46;;;;;;;84.40;18.00;;;14.70;68.90;;;;;;5039706;28;19957;-68
2022/11/30 04:59:12;;;;;;;;;;;14.80;68.90;;;;;;5037701;28;20073;-68
2022/11/30 05:01:39;;;;;;;69.00;15.98;;;14.70;68.80;;;;;;5036365;28;19969;-66
2022/11/30 05:04:05;;;;;;;;;;;14.60;69.50;;;;;;5040287;28;20069;-66
2022/11/30 05:06:31;;;;;;;75.30;17.70;;;14.70;70.30;;;;;;5036654;28;19973;-68
2022/11/30 05:08:58;;;;;;;64.07;15.70;;;14.60;69.80;;;;;;5033456;28;20479;-68
2022/11/30 05:11:24;;;;;;;84.20;16.77;;;14.60;70.30;;;;;;5041527;28;20077;-68
2022/11/30 05:13:50;;;;;;;;;;;14.50;69.50;;;;;;5044949;28;20081;-68
2022/11/30 05:16:16;;;;;;;62.20;13.43;;;14.50;70.00;;;;;;5041106;28;19974;-68
2022/11/30 05:18:43;;;;;;;69.60;13.65;;;14.50;70.20;;;;;;5039158;28;20434;-67
2022/11/30 05:21:10;;;;;;;;;;;14.40;70.30;;;;;;5040108;28;21611;-66
2022/11/30 05:23:36;;;;;;;65.20;13.70;;;14.40;70.50;;;;;;5037600;28;20545;-65
2022/11/30 05:26:02;;;;;;;;;;;14.50;70.50;;;;;;5039231;28;20093;-66
2022/11/30 05:28:29;;;;;;;62.00;14.10;;;14.50;70.40;;;;;;5039053;28;19959;-67
2022/11/30 05:31:01;;;;;;;61.08;14.35;;;14.40;70.70;;;;;;5037785;28;20108;-67
2022/11/30 05:33:27;;;;;;;70.03;15.65;;;14.40;71.00;;;;;;5040128;28;20541;-68
2022/11/30 05:35:53;;;;;;;;;;;14.30;71.20;;;;;;5037173;28;20173;-68
2022/11/30 05:38:20;;;;;;;74.80;14.95;;;14.30;71.60;;;;;;5035488;28;20080;-66
2022/11/30 05:40:46;;;;;;;77.50;15.35;;;14.30;72.40;;;;;;5035670;28;20146;-67
2022/11/30 05:43:12;;;;;;;;;;;14.20;72.50;;;;;;5037366;28;20504;-66
2022/11/30 05:45:39;;;;;;;66.15;15.23;;;14.20;72.60;;;;;;5035733;28;20001;-65
2022/11/30 05:48:05;;;;;;;80.00;15.40;;;14.10;72.40;;;;;;5037026;28;20074;-65
2022/11/30 05:50:32;;;;;;;75.82;19.42;;;14.10;72.30;;;;;;5042042;28;20066;-65
2022/11/30 05:52:59;;;;;;;;;;;14.20;72.20;;;;;;5037469;28;20092;-66
2022/11/30 05:55:26;;;;;;;;;;;14.20;72.60;;;;;;5036188;28;19969;-66
2022/11/30 05:57:53;;;;;;;68.43;17.17;;;14.10;72.80;;;;;;5039765;28;20007;-65
2022/11/30 06:00:21;;;;;;;67.20;15.55;;;14.10;72.80;;;;;;5043657;28;20085;-67
2022/11/30 06:02:47;;;;;;;75.13;15.90;;;14.10;72.90;;;;;;5038597;28;20175;-66
2022/11/30 06:05:14;;;;;;;60.92;16.75;;;14.10;73.00;;;;;;5036454;28;20103;-66
2022/11/30 06:07:40;;;;;;;;;;;14.10;73.20;;;;;;5034654;28;20117;-66
2022/11/30 06:10:07;;;;;;;78.10;16.10;;;14.00;73.50;;;;;;5036265;28;20024;-66
2022/11/30 06:12:33;;;;;;;82.53;16.13;;;14.00;73.80;;;;;;5034756;28;20098;-66
2022/11/30 06:14:59;;;;;;;;;;;13.90;73.60;;;;;;5036699;28;20129;-67
2022/11/30 06:17:25;;;;;;;78.70;16.52;;;14.00;73.40;;;;;;5041922;28;20425;-68
2022/11/30 06:19:51;;;;;;;;;;;14.00;73.40;;;;;;5042959;28;20411;-65
2022/11/30 06:22:18;;;;;;;90.55;18.77;;;14.00;74.30;;;;;;5040564;28;20396;-68
2022/11/30 06:24:44;;;;;;;;;;;13.90;73.90;;;;;;5035853;28;20074;-67
2022/11/30 06:27:10;;;;;;;111.32;21.33;;;13.90;74.00;;;;;;5039715;28;19957;-64
2022/11/30 06:29:36;;;;;;;;;;;13.90;73.80;;;;;;5039500;28;20090;-67
2022/11/30 06:32:05;;;;;;;134.05;27.60;;;13.80;73.90;;;;;;5041701;28;19962;-65
2022/11/30 06:34:31;;;;;;;157.40;30.77;;;13.80;73.70;;;;;;5040659;28;20070;-64
2022/11/30 06:36:58;;;;;;;;;;;13.80;73.40;;;;;;5044760;28;20089;-73
2022/11/30 06:39:24;;;;;;;167.13;36.50;;;13.80;74.10;;;;;;5044043;28;20003;-75
2022/11/30 06:41:50;;;;;;;;;;;13.90;73.70;;;;;;5041437;28;20069;-72
2022/11/30 06:44:16;;;;;;;152.30;37.55;;;13.90;72.50;;;;;;5034523;28;19964;-71
2022/11/30 06:46:42;;;;;;;;;;;13.90;72.60;;;;;;5037491;28;20147;-71
2022/11/30 06:49:09;;;;;;;161.23;38.08;;;14.00;72.70;;;;;;5036103;28;20020;-73
2022/11/30 06:51:36;;;;;;;190.32;41.50;;;14.00;72.40;;;;;;5042863;28;20124;-73
2022/11/30 06:54:02;;;;;;;177.00;39.28;;;14.00;72.40;;;;;;5040588;28;20362;-74
2022/11/30 06:56:28;;;;;;;;;;;14.00;72.20;;;;;;5043962;28;20074;-71
2022/11/30 06:58:55;;;;;;;172.65;50.92;;;14.00;72.00;;;;;;5021535;28;19958;-73
2022/11/30 07:01:21;;;;;;;201.48;50.35;;;14.00;72.50;;;;;;5043727;28;20069;-74
2022/11/30 07:03:47;;;;;;;;;;;14.00;72.60;;;;;;5039971;28;20104;-74
2022/11/30 07:06:14;;;;;;;173.52;49.67;;;13.90;72.90;;;;;;5039599;28;19981;-74
2022/11/30 07:08:42;;;;;;;149.75;40.10;;;13.80;72.90;;;;;;5023470;28;20197;-73
2022/11/30 07:11:10;;;;;;;165.43;39.95;;;13.90;72.60;;;;;;5042694;28;20073;-75
2022/11/30 07:13:36;;;;;;;162.10;38.75;;;13.90;72.80;;;;;;5037397;28;20085;-74
2022/11/30 07:16:09;;;;;;;159.68;39.20;;;13.80;72.40;;;;;;5038548;28;20124;-75
2022/11/30 07:18:35;;;;;;;145.65;38.75;;;13.80;73.10;;;;;;5026831;28;20531;-74
2022/11/30 07:21:04;;;;;;;161.50;41.25;;;13.70;73.00;;;;;;5044092;28;20089;-73
2022/11/30 07:26:16;;;;;;;174.60;39.28;;;13.70;73.30;;;;;;5041420;28;20116;-73
2022/11/30 07:28:49;;;;;;;178.43;41.58;;;13.70;73.00;;;;;;5040150;28;20073;-73
2022/11/30 07:31:23;;;;;;;182.52;42.35;;;13.70;72.50;;;;;;5036896;28;20124;-73
2022/11/30 07:33:50;;;;;;;171.52;41.45;;;13.70;72.20;;;;;;5040245;28;20612;-73
2022/11/30 07:36:19;;;;;;;182.60;45.45;;;13.70;72.70;;;;;;5037484;28;20070;-74
2022/11/30 07:38:46;;;;;;;166.82;41.03;;;13.70;72.70;;;;;;5041020;28;20066;-73
2022/11/30 07:41:13;;;;;;;183.65;42.97;;;13.70;72.30;;;;;;5046632;28;20488;-73
2022/11/30 07:43:40;;;;;;;186.18;43.35;;;13.60;72.60;;;;;;5038555;28;20081;-74
2022/11/30 07:46:06;;;;;;;173.95;42.88;;;13.50;72.60;;;;;;5044440;28;20123;-73
2022/11/30 07:48:34;;;;;;;176.90;42.13;;;13.40;73.10;;;;;;5034867;28;20096;-75
2022/11/30 07:51:27;;;;;;;188.68;48.60;;;13.40;74.60;;;;;;5039083;28;20074;-73
2022/11/30 07:53:57;;;;;;;178.07;41.50;;;13.50;73.80;;;;;;5041595;28;20109;-75
2022/11/30 07:56:24;;;;;;;172.18;39.15;;;13.30;74.20;;;;;;5039588;28;20513;-74
2022/11/30 07:58:57;;;;;;;168.40;41.90;;;13.20;73.90;;;;;;5041137;28;20549;-72
2022/11/30 08:01:29;;;;;;;148.80;37.25;;;13.10;74.10;;;;;;5041162;28;20541;-72
2022/11/30 08:03:56;;;;;;;150.23;40.47;;;13.20;74.50;;;;;;5039765;28;20088;-72
2022/11/30 08:06:28;;;;;;;170.57;39.08;;;13.30;74.00;;;;;;5021169;28;20577;-74
2022/11/30 08:09:00;;;;;;;149.60;37.17;;;13.30;74.20;;;;;;5026584;28;20105;-74
2022/11/30 08:11:30;;;;;;;143.00;38.03;;;13.30;74.60;;;;;;5039607;28;20074;-73
2022/11/30 08:13:57;;;;;;;148.45;37.85;;;13.20;73.70;;;;;;5039641;28;20101;-72
2022/11/30 08:16:29;;;;;;;138.27;36.55;;;13.10;75.10;;;;;;5020611;28;20073;-74
2022/11/30 08:19:03;;;;;;;157.32;38.33;;;13.20;75.70;;;;;;5045058;28;20077;-73
2022/11/30 08:21:31;;;;;;;139.05;35.22;;;13.10;74.90;;;;;;5035340;28;20073;-71
2022/11/30 08:23:57;;;;;;;144.13;38.67;;;13.20;74.50;;;;;;5037897;28;20119;-72
2022/11/30 08:26:27;;;;;;;157.52;35.33;;;13.20;74.40;;;;;;5042507;28;20077;-72
2022/11/30 08:28:54;;;;;;;148.77;37.45;;;13.20;74.00;;;;;;5046066;28;20082;-74
2022/11/30 08:31:23;;;;;;;155.05;36.17;;;13.10;74.20;;;;;;5044367;28;20148;-73
2022/11/30 08:33:53;;;;;;;131.48;34.75;;;13.00;74.70;;;;;;5043812;28;20546;-75
2022/11/30 08:36:21;;;;;;;144.38;35.15;;;13.00;74.70;;;;;;5034968;28;20070;-74
2022/11/30 08:38:48;;;;;;;129.63;33.63;;;13.00;74.90;;;;;;5040213;28;20078;-74
2022/11/30 08:41:18;;;;;;;128.55;32.33;;;13.10;75.30;;;;;;5040708;28;20074;-72
2022/11/30 08:43:44;;;;;;;128.73;33.85;;;13.00;75.40;;;;;;5032171;28;20078;-73
2022/11/30 08:46:13;;;;;;;135.45;34.05;;;12.90;75.70;;;;;;5040041;28;20542;-74
2022/11/30 08:48:39;;;;;;;137.43;33.22;;;12.90;75.60;;;;;;5040111;28;20555;-72
2022/11/30 08:51:12;;;;;;;126.20;35.97;;;12.90;75.50;;;;;;5044170;28;20081;-73
2022/11/30 08:53:39;;;;;;;138.05;33.70;;;12.90;75.50;;;;;;5040698;28;20082;-74
2022/11/30 08:56:15;;;;;;;152.57;33.08;;;12.90;75.50;;;;;;5036116;28;20074;-73
2022/11/30 08:58:42;;;;;;;128.18;32.88;;;12.90;75.90;;;;;;5038080;28;20073;-73
2022/11/30 09:01:17;;;;;;;119.25;34.10;;;12.80;76.20;;;;;;5039214;28;20124;-73
2022/11/30 09:03:45;;;;;;;142.35;35.75;;;12.80;76.30;;;;;;5040681;28;20073;-73
2022/11/30 09:06:17;;;;;;;133.10;35.13;;;12.80;76.20;;;;;;5042169;28;20100;-74
2022/11/30 09:08:46;;;;;;;143.02;35.75;;;12.70;76.20;;;;;;5038640;28;20181;-73
2022/11/30 09:11:23;;;;;;;134.75;33.63;;;12.70;76.40;;;;;;5036452;28;20081;-74
2022/11/30 09:13:50;;;;;;;144.95;33.50;;;12.70;76.30;;;;;;5037858;28;20143;-73
2022/11/30 09:16:18;;;;;;;132.73;35.13;;;12.70;76.00;;;;;;5039765;28;20085;-74
2022/11/30 09:18:46;;;;;;;109.55;32.30;;;12.70;75.90;;;;;;5039540;28;20076;-73
2022/11/30 09:21:15;;;;;;;120.28;33.03;;;12.70;76.00;;;;;;5044127;28;20181;-73
2022/11/30 09:23:43;;;;;;;129.25;36.15;;;12.70;75.90;;;;;;5035781;28;20128;-72
2022/11/30 09:26:12;;;;;;;125.38;34.45;;;12.60;75.80;;;;;;5037925;28;20074;-74
2022/11/30 09:28:38;;;;;;;107.60;30.70;;;12.60;75.80;;;;;;5032686;28;20086;-77
2022/11/30 09:31:10;;;;;;;;;;;12.60;75.80;;;;;;5044371;28;20132;-72
2022/11/30 09:33:38;;;;;;;123.05;31.58;;;12.60;76.10;;;;;;5036718;28;20326;-72
2022/11/30 09:36:07;;;;;;;106.75;30.77;;;12.60;76.10;;;;;;5033052;28;20074;-73
2022/11/30 09:38:34;;;;;;;116.65;32.03;;;12.50;76.00;;;;;;5036528;28;20070;-72
2022/11/30 09:41:06;;;;;;;110.80;31.00;;;12.50;76.10;;;;;;5036734;28;20074;-71
2022/11/30 09:43:45;;;;;;;109.32;30.42;;;12.40;77.10;;;;;;5035586;28;20341;-73
2022/11/30 09:46:12;;;;;;;104.07;30.40;;;12.40;76.00;;;;;;5040947;28;20093;-74
2022/11/30 09:49:14;;;;;;;107.15;29.75;;;12.40;76.40;;;;;;5042742;28;20090;-71
2022/11/30 09:51:48;;;;;;;114.72;30.90;;;12.40;76.20;;;;;;4984436;28;20445;-72
2022/11/30 09:54:35;;;;;;;109.53;30.15;;;12.30;76.10;;;;;;5037668;28;20541;-74
2022/11/30 09:57:45;;;;;;;108.20;30.63;;;12.30;76.20;;;;;;5035460;28;20415;-73
2022/11/30 10:00:16;;;;;;;96.70;28.25;;;12.30;76.70;;;;;;5036769;28;20131;-74
2022/11/30 10:02:43;;;;;;;90.78;26.70;;;12.30;77.70;;;;;;5039803;28;20097;-73
2022/11/30 10:05:15;;;;;;;89.35;26.92;;;12.20;77.80;;;;;;5042672;28;20086;-74
2022/11/30 10:08:01;;;;;;;88.72;26.20;;;12.30;77.30;;;;;;5042146;28;20074;-72
2022/11/30 10:11:02;;;;;;;110.65;24.45;;;12.30;77.00;;;;;;5038900;28;20101;-71
2022/11/30 10:13:58;;;;;;;85.35;25.58;;;12.20;77.20;;;;;;5043676;28;20089;-74
2022/11/30 10:16:38;;;;;;;97.75;27.13;;;12.20;77.70;;;;;;5040716;28;20122;-72
2022/11/30 10:19:38;;;;;;;100.43;25.80;;;12.10;77.00;;;;;;5038009;28;20077;-74
2022/11/30 10:22:25;;;;;;;104.00;26.30;;;12.10;77.70;;;;;;5039650;28;20086;-74
2022/11/30 10:25:42;;;;;;;87.05;27.88;;;12.10;78.00;;;;;;5042285;28;20592;-74
2022/11/30 10:28:17;;;;;;;95.80;25.17;;;12.10;78.50;;;;;;4941016;29;20565;-74
2022/11/30 10:30:44;;;;;;;88.72;25.98;;;12.10;78.20;;;;;;4943450;29;20091;-74
2022/11/30 10:33:18;;;;;;;94.32;27.35;;;12.00;77.80;;;;;;4939492;29;20171;-75
2022/11/30 10:35:57;;;;;;;99.85;26.95;;;12.00;78.10;;;;;;4944996;29;20091;-75
2022/11/30 10:38:37;;;;;;;80.53;25.60;;;12.00;78.10;;;;;;4939793;29;20080;-71
2022/11/30 10:41:12;;;;;;;91.78;26.20;;;11.90;78.30;;;;;;4945742;29;20120;-75
2022/11/30 10:44:14;;;;;;;102.25;25.83;;;11.90;79.30;;;;;;4942738;29;20469;-74
2022/11/30 10:46:49;;;;;;;78.65;26.15;;;11.80;79.30;;;;;;4941010;29;20091;-74
2022/11/30 10:49:18;;;;;;;81.68;24.85;;;11.80;78.80;;;;;;4941349;29;20533;-73
2022/11/30 10:51:50;;;;;;;82.50;27.23;;;11.70;78.90;;;;;;4941026;29;20123;-73
2022/11/30 10:54:19;;;;;;;91.88;26.98;;;11.60;79.80;;;;;;4944427;29;20084;-74
2022/11/30 10:56:46;;;;;;;103.18;28.80;;;11.70;79.90;;;;;;4941167;29;20224;-73
2022/11/30 10:59:44;;;;;;;103.35;28.48;;;11.70;80.50;;;;;;4942946;29;20122;-73
2022/11/30 11:02:44;;;;;;;89.97;27.42;;;11.70;80.80;;;;;;4993933;28;20089;-75
2022/11/30 11:05:25;;;;;;;91.38;28.85;;;11.60;80.60;;;;;;5041097;28;20245;-75
2022/11/30 11:07:59;;;;;;;85.43;26.33;;;11.60;80.90;;;;;;5037570;28;20073;-75
2022/11/30 11:10:28;;;;;;;85.53;24.00;;;11.60;80.70;;;;;;5046160;28;20120;-72
2022/11/30 11:12:55;;;;;;;74.80;23.73;;;11.60;80.80;;;;;;5041657;28;20475;-73
2022/11/30 11:15:30;;;;;;;88.22;22.38;;;11.60;81.30;;;;;;5027047;28;20536;-74
2022/11/30 11:18:15;;;;;;;67.65;23.50;;;11.60;81.10;;;;;;5040642;28;20518;-75
2022/11/30 11:20:42;;;;;;;103.13;24.15;;;11.50;80.90;;;;;;5037309;28;20497;-75
2022/11/30 11:23:34;;;;;;;72.60;22.15;;;11.50;81.40;;;;;;5042904;28;20105;-73
2022/11/30 11:26:01;;;;;;;73.53;22.27;;;11.50;81.70;;;;;;5044977;28;20539;-73
2022/11/30 11:28:28;;;;;;;72.03;22.13;;;11.40;81.70;;;;;;5041291;28;20175;-74
2022/11/30 11:30:56;;;;;;;79.28;21.63;;;11.40;82.00;;;;;;5044152;28;20150;-73
2022/11/30 11:33:28;;;;;;;66.32;21.90;;;11.40;81.60;;;;;;5043474;28;20085;-73
2022/11/30 11:36:05;;;;;;;66.18;21.27;;;11.40;81.30;;;;;;5041800;28;20065;-74
2022/11/30 11:38:51;;;;;;;58.92;20.52;;;11.40;81.10;;;;;;5041881;28;20092;-73
2022/11/30 11:41:30;;;;;;;55.22;19.38;;;11.30;80.90;;;;;;5040914;28;20550;-73
2022/11/30 11:44:11;;;;;;;54.03;18.67;;;11.30;81.00;;;;;;5041183;28;20078;-72
2022/11/30 11:47:01;;;;;;;50.42;17.85;;;11.30;80.70;;;;;;5044025;28;20523;-71
2022/11/30 11:49:38;;;;;;;56.72;20.38;;;11.30;80.70;;;;;;5037080;28;20161;-74
2022/11/30 11:52:05;;;;;;;;;;;11.20;81.00;;;;;;5040056;28;20077;-71
2022/11/30 11:54:59;;;;;;;52.30;18.00;;;11.20;81.00;;;;;;5040564;28;19981;-74
2022/11/30 11:57:37;;;;;;;64.65;19.67;;;11.10;81.20;;;;;;5047406;28;20176;-73
2022/11/30 12:00:22;;;;;;;59.42;19.38;;;11.10;82.00;;;;;;5037316;28;20100;-73
2022/11/30 12:03:01;;;;;;;62.72;20.60;;;11.20;82.90;;;;;;5041072;28;20080;-74
2022/11/30 12:05:37;;;;;;;62.78;18.88;;;11.20;82.20;;;;;;5036471;28;20089;-73
2022/11/30 12:08:17;;;;;;;74.85;20.23;;;11.10;82.00;;;;;;5039407;28;20181;-72
2022/11/30 12:10:56;;;;;;;60.15;20.50;;;11.00;82.70;;;;;;5037161;28;20128;-74
2022/11/30 12:13:42;;;;;;;62.88;18.23;;;11.10;83.30;;;;;;5044731;28;20096;-72
2022/11/30 12:16:45;;;;;;;58.65;20.35;;;11.20;83.50;;;;;;5035504;28;20097;-73
2022/11/30 12:19:32;;;;;;;65.13;20.73;;;11.20;82.90;;;;;;5037350;28;20137;-72
2022/11/30 12:22:16;;;;;;;55.43;20.17;;;11.10;83.20;;;;;;5040737;28;20074;-72
2022/11/30 12:25:17;;;;;;;54.80;20.20;;;11.10;83.60;;;;;;5037147;28;20066;-73
2022/11/30 12:27:44;;;;;;;60.13;20.50;;;11.00;83.00;;;;;;5037983;28;20087;-74
2022/11/30 12:30:16;;;;;;;;;;;10.90;83.80;;;;;;5040152;28;20074;-74
2022/11/30 12:33:08;;;;;;;61.13;20.65;;;10.90;84.00;;;;;;5044145;28;19973;-74
2022/11/30 12:35:48;;;;;;;70.78;21.58;;;10.90;84.40;;;;;;5043530;28;20069;-75
2022/11/30 12:38:49;;;;;;;64.50;19.13;;;10.90;84.30;;;;;;5045359;28;20066;-72
2022/11/30 12:41:42;;;;;;;58.30;18.85;;;10.90;84.40;;;;;;5023940;28;20166;-73
2022/11/30 12:44:32;;;;;;;59.05;18.58;;;10.80;84.00;;;;;;5038342;28;20086;-72
2022/11/30 12:47:30;;;;;;;61.28;17.27;;;10.80;84.20;;;;;;5044302;28;20085;-73
2022/11/30 12:50:23;;;;;;;53.55;19.40;;;10.70;84.20;;;;;;5036981;28;20076;-74
2022/11/30 12:53:24;;;;;;;65.20;20.27;;;10.60;84.70;;;;;;5035018;28;20181;-74
2022/11/30 12:55:56;;;;;;;49.72;17.80;;;10.60;85.00;;;;;;4940173;29;20094;-74
2022/11/30 12:58:36;;;;;;;65.03;20.15;;;10.60;85.30;;;;;;4935836;29;20068;-71
2022/11/30 13:01:30;;;;;;;58.75;21.17;;;10.60;85.40;;;;;;4938884;29;20095;-73
2022/11/30 13:04:15;;;;;;;60.95;20.17;;;10.60;85.50;;;;;;4941154;29;20083;-74